Thornfield, Missouri
Current Conditions -  °F | °C
As of 1:53 PM on Monday 26 Jan 2015 (Local Time) from KBPK Reporting Station
Clear Clear  
Wind Chill: 54°   Ceiling: Unl
Heat Index: 54°   Visibility: 10mi
Dew Point: 31°   Wind: 8mph
Humidity: 41%   Direction: 230°SW
Pressure: 29.93"   Gusts: NA
Location:  36.71°N, 92.66°W
Report Text: KBPK 261953Z AUTO 23007KT 10SM CLR 12/M01 A2993 RMK AO2 SLP137 T01221006
Loading
Personal Weather Stations






























Interactive Weather Map New forecast layout! Learn more

10-Day Weather Forecast

Advertisements
Track Severe Weather on mobile